Terminal Aerodrome Forecast
Issued by NWS Twin Cities, MN

Home | Current Version | Previous Version | Graphics & Text | Print | Product List | Glossary On
Versions: 1 2 3 4 5 6 7 8 9 10 11 12 13 14 15 16 17 18
073
FTUS43 KMPX 272339
TAFSTC
TAF
KSTC 272339Z 2800/2824 07016G23KT 6SM -RA BR SCT050 BKN080
     FM280400 06011KT P6SM OVC070
     FM280800 06012KT 6SM -RA BR OVC060
     FM281500 06008KT P6SM OVC090=

USA.gov is the U.S. government's official web portal to all federal, state and local government web resources and services.